createdAt,value
2023-05-23T00:01:45.492Z,18.09
2023-05-23T00:04:07.411Z,18.10
2023-05-23T00:06:28.954Z,18.08
2023-05-23T00:08:50.814Z,17.98
2023-05-23T00:11:13.416Z,17.97
2023-05-23T00:13:35.906Z,18.01
2023-05-23T00:15:57.377Z,18.01
2023-05-23T00:18:19.161Z,17.95
2023-05-23T00:20:42.659Z,17.92
2023-05-23T00:23:04.463Z,17.97
2023-05-23T00:25:26.314Z,18.01
2023-05-23T00:27:47.802Z,18.01
2023-05-23T00:30:09.516Z,17.99
2023-05-23T00:32:31.086Z,18.05
2023-05-23T00:34:54.167Z,18.04
2023-05-23T00:37:16.475Z,18.03
2023-05-23T00:39:37.922Z,18.08
2023-05-23T00:41:59.390Z,18.00
2023-05-23T00:44:21.686Z,17.95
2023-05-23T00:46:46.166Z,17.90
2023-05-23T00:49:07.812Z,17.85
2023-05-23T00:51:29.372Z,17.89
2023-05-23T00:53:50.868Z,17.97
2023-05-23T00:56:12.624Z,17.86
2023-05-23T00:58:34.133Z,17.96
2023-05-23T01:00:56.202Z,17.94
2023-05-23T01:03:18.504Z,17.95
2023-05-23T01:05:40.530Z,17.98
2023-05-23T01:08:03.424Z,17.83
2023-05-23T01:10:30.965Z,17.75
2023-05-23T01:13:16.778Z,17.87
2023-05-23T01:15:55.832Z,17.86
2023-05-23T01:18:23.971Z,17.81
2023-05-23T01:20:50.696Z,17.88
2023-05-23T01:23:47.729Z,17.83
2023-05-23T01:26:32.613Z,17.82
2023-05-23T01:29:05.975Z,17.79
2023-05-23T01:31:29.243Z,17.87
2023-05-23T01:33:53.447Z,17.74
2023-05-23T01:36:15.399Z,17.84
2023-05-23T01:38:36.928Z,17.90
2023-05-23T01:40:58.532Z,17.64
2023-05-23T01:43:21.012Z,17.72
2023-05-23T01:45:43.481Z,17.81
2023-05-23T01:48:06.332Z,17.92
2023-05-23T01:50:28.720Z,17.84
2023-05-23T01:52:50.864Z,17.79
2023-05-23T01:55:16.274Z,17.88
2023-05-23T01:57:38.261Z,17.91
2023-05-23T01:59:59.747Z,17.97
2023-05-23T02:02:21.556Z,17.94
2023-05-23T02:04:43.101Z,17.91
2023-05-23T02:07:04.718Z,17.92
2023-05-23T02:09:26.346Z,17.82
2023-05-23T02:11:47.807Z,17.84
2023-05-23T02:14:09.686Z,17.87
2023-05-23T02:16:31.143Z,17.85
2023-05-23T02:18:56.487Z,17.77
2023-05-23T02:21:18.168Z,17.83
2023-05-23T02:23:39.644Z,17.72
2023-05-23T02:26:01.092Z,17.74
2023-05-23T02:28:22.655Z,17.80
2023-05-23T02:30:44.175Z,17.86
2023-05-23T02:33:06.783Z,17.89
2023-05-23T02:35:28.294Z,17.93
2023-05-23T02:37:49.805Z,18.00
2023-05-23T02:40:11.460Z,17.96
2023-05-23T02:42:33.348Z,17.95
2023-05-23T02:44:54.835Z,17.98
2023-05-23T02:47:16.314Z,18.04
2023-05-23T02:49:37.833Z,18.05
2023-05-23T02:51:59.283Z,18.04
2023-05-23T02:54:20.925Z,18.05
2023-05-23T02:56:42.421Z,17.95
2023-05-23T02:59:03.863Z,17.94
2023-05-23T03:01:25.386Z,17.98
2023-05-23T03:03:47.013Z,17.98
2023-05-23T03:06:10.761Z,18.03
2023-05-23T03:08:32.382Z,18.07
2023-05-23T03:10:54.012Z,18.08
2023-05-23T03:13:16.315Z,18.06
2023-05-23T03:15:38.083Z,18.01
2023-05-23T03:17:59.755Z,18.01
2023-05-23T03:20:21.419Z,17.96
2023-05-23T03:22:45.797Z,17.94
2023-05-23T03:25:07.922Z,17.96
2023-05-23T03:27:29.534Z,18.06
2023-05-23T03:29:51.606Z,18.09
2023-05-23T03:32:13.478Z,18.12
2023-05-23T03:34:36.703Z,18.17
2023-05-23T03:36:58.308Z,18.22
2023-05-23T03:39:19.928Z,18.28
2023-05-23T03:41:41.528Z,18.05
2023-05-23T03:44:04.066Z,17.91
2023-05-23T03:46:25.866Z,17.77
2023-05-23T03:48:47.544Z,17.85
2023-05-23T03:51:09.146Z,17.88
2023-05-23T03:53:30.752Z,17.96
2023-05-23T03:55:54.128Z,18.06
2023-05-23T03:58:15.795Z,18.16
2023-05-23T04:00:37.396Z,18.12
2023-05-23T04:02:59.114Z,17.99
2023-05-23T04:05:20.876Z,17.85
2023-05-23T04:07:43.262Z,17.66
2023-05-23T04:10:05.776Z,17.56
2023-05-23T04:12:27.415Z,17.48
2023-05-23T04:14:50.360Z,17.40
2023-05-23T04:17:12.153Z,17.13
2023-05-23T04:19:33.803Z,17.02
2023-05-23T04:21:55.386Z,16.78
2023-05-23T04:24:17.225Z,16.61
2023-05-23T04:26:39.521Z,16.52
2023-05-23T04:29:01.980Z,16.47
2023-05-23T04:31:23.642Z,16.51
2023-05-23T04:33:45.862Z,16.56
2023-05-23T04:36:10.555Z,16.50
2023-05-23T04:38:32.155Z,16.40
2023-05-23T04:40:54.477Z,16.32
2023-05-23T04:43:16.445Z,16.23
2023-05-23T04:45:38.041Z,16.19
2023-05-23T04:47:59.606Z,16.17
2023-05-23T04:50:22.928Z,16.11
2023-05-23T04:52:44.446Z,16.19
2023-05-23T04:55:06.696Z,16.30
2023-05-23T04:57:28.700Z,16.24
2023-05-23T04:59:50.692Z,16.27
2023-05-23T05:02:12.174Z,16.30
2023-05-23T05:04:33.657Z,16.26
2023-05-23T05:06:55.126Z,16.36
2023-05-23T05:09:16.719Z,16.46
2023-05-23T05:11:38.300Z,16.51
2023-05-23T05:13:59.972Z,16.52
2023-05-23T05:16:21.821Z,16.46
2023-05-23T05:18:43.284Z,16.51
2023-05-23T05:21:04.824Z,16.52
2023-05-23T05:23:30.236Z,16.61
2023-05-23T05:25:51.894Z,16.51
2023-05-23T05:28:13.430Z,16.49
2023-05-23T05:30:35.527Z,16.42
2023-05-23T05:32:58.234Z,16.53
2023-05-23T05:35:19.838Z,16.57
2023-05-23T05:37:41.301Z,16.59
2023-05-23T05:40:06.813Z,16.51
2023-05-23T05:42:28.262Z,16.48
2023-05-23T05:44:50.135Z,16.44
2023-05-23T05:47:11.617Z,16.46
2023-05-23T05:49:33.133Z,16.38
2023-05-23T05:51:54.566Z,16.44
2023-05-23T05:54:18.254Z,16.64
2023-05-23T05:56:42.234Z,16.57
2023-05-23T05:59:03.710Z,16.37
2023-05-23T06:01:25.493Z,16.48
2023-05-23T06:03:47.196Z,16.41
2023-05-23T06:06:09.002Z,16.42
2023-05-23T06:08:30.470Z,16.29
2023-05-23T06:10:52.063Z,16.29
2023-05-23T06:13:13.525Z,16.24
2023-05-23T06:15:35.046Z,16.13
2023-05-23T06:17:56.776Z,16.09
2023-05-23T06:20:18.452Z,16.12
2023-05-23T06:22:40.122Z,16.14
2023-05-23T06:25:01.572Z,16.14
2023-05-23T06:27:23.106Z,16.11
2023-05-23T06:29:44.576Z,15.99
2023-05-23T06:32:06.583Z,16.10
2023-05-23T06:34:28.354Z,16.11
2023-05-23T06:36:49.814Z,16.20
2023-05-23T06:39:11.286Z,16.39
2023-05-23T06:41:32.737Z,16.50
2023-05-23T06:43:54.208Z,16.62
2023-05-23T06:46:15.826Z,16.62
2023-05-23T06:48:37.471Z,16.78
2023-05-23T06:50:58.982Z,16.95
2023-05-23T06:53:20.581Z,16.99
2023-05-23T06:55:42.088Z,17.26
2023-05-23T06:58:04.322Z,17.61
2023-05-23T07:00:26.072Z,18.00
2023-05-23T07:02:50.972Z,18.40
2023-05-23T07:05:13.021Z,18.55
2023-05-23T07:07:34.628Z,18.73
2023-05-23T07:09:56.238Z,18.89
2023-05-23T07:12:17.724Z,18.94
2023-05-23T07:14:39.273Z,19.08
2023-05-23T07:17:00.765Z,18.89
2023-05-23T07:19:22.322Z,19.21
2023-05-23T07:21:43.792Z,19.32
2023-05-23T07:24:06.135Z,19.08
2023-05-23T07:26:27.705Z,18.81
2023-05-23T07:28:49.271Z,18.48
2023-05-23T07:31:11.996Z,18.54
2023-05-23T07:33:34.590Z,18.51
2023-05-23T07:35:56.130Z,18.53
2023-05-23T07:38:17.690Z,18.62
2023-05-23T07:40:40.506Z,18.54
2023-05-23T07:43:02.179Z,18.71
2023-05-23T07:45:23.672Z,18.67
2023-05-23T07:47:45.489Z,18.78
2023-05-23T07:50:07.739Z,18.76
2023-05-23T07:52:32.571Z,18.72
2023-05-23T07:54:54.024Z,18.77
2023-05-23T07:57:16.747Z,18.64
2023-05-23T07:59:38.729Z,18.35
2023-05-23T08:02:00.237Z,18.12
2023-05-23T08:04:21.765Z,18.05
2023-05-23T08:06:52.192Z,17.89
2023-05-23T08:09:24.715Z,17.85
2023-05-23T08:11:46.194Z,17.88
2023-05-23T08:14:07.732Z,17.87
2023-05-23T08:16:29.285Z,17.88
2023-05-23T08:18:50.778Z,18.10
2023-05-23T08:21:12.344Z,18.12
2023-05-23T08:23:33.816Z,18.19
2023-05-23T08:25:56.223Z,18.19
2023-05-23T08:28:17.672Z,18.03
2023-05-23T08:30:39.290Z,18.00
2023-05-23T08:33:04.684Z,18.18
2023-05-23T08:35:26.813Z,18.62
2023-05-23T08:37:49.956Z,18.95
2023-05-23T08:40:15.067Z,19.33
2023-05-23T08:42:36.588Z,19.30
2023-05-23T08:44:58.133Z,19.50
2023-05-23T08:47:19.913Z,19.82
2023-05-23T08:49:41.634Z,20.22
2023-05-23T08:52:03.906Z,20.36
2023-05-23T08:54:26.296Z,20.30
2023-05-23T08:56:48.204Z,20.44
2023-05-23T08:59:11.538Z,20.55
2023-05-23T09:01:34.914Z,20.62
2023-05-23T09:04:00.248Z,20.46
2023-05-23T09:06:21.980Z,20.68
2023-05-23T09:08:46.012Z,20.91
2023-05-23T09:11:08.871Z,20.82
2023-05-23T09:13:31.347Z,20.68
2023-05-23T09:16:04.166Z,20.58
2023-05-23T09:18:27.074Z,20.72
2023-05-23T09:20:48.634Z,20.53
2023-05-23T09:23:13.890Z,20.35
2023-05-23T09:25:45.801Z,20.41
2023-05-23T09:28:07.273Z,20.22
2023-05-23T09:30:34.155Z,19.46
2023-05-23T09:33:05.600Z,19.17
2023-05-23T09:35:28.614Z,18.86
2023-05-23T09:37:50.179Z,18.67
2023-05-23T09:40:14.218Z,18.65
2023-05-23T09:42:36.525Z,18.73
2023-05-23T09:44:58.719Z,18.75
2023-05-23T09:47:20.376Z,19.18
2023-05-23T09:49:46.945Z,19.69
2023-05-23T09:52:08.380Z,19.62
2023-05-23T09:54:29.879Z,19.41
2023-05-23T09:56:53.649Z,19.24
2023-05-23T09:59:16.408Z,19.17
2023-05-23T10:01:38.161Z,18.90
2023-05-23T10:04:00.582Z,18.61
2023-05-23T10:06:40.816Z,18.31
2023-05-23T10:09:06.345Z,18.12
2023-05-23T10:11:36.649Z,18.01
2023-05-23T10:14:00.658Z,17.99
2023-05-23T10:16:34.169Z,17.94
2023-05-23T10:18:59.349Z,18.06
2023-05-23T10:21:28.431Z,17.94
2023-05-23T10:23:50.552Z,18.02
2023-05-23T10:26:12.106Z,18.18
2023-05-23T10:28:33.894Z,18.35
2023-05-23T10:30:55.597Z,18.10
2023-05-23T10:33:18.035Z,18.04
2023-05-23T10:35:56.557Z,18.14
2023-05-23T10:38:25.731Z,18.00
2023-05-23T10:40:47.208Z,17.66
2023-05-23T10:43:27.207Z,17.50
2023-05-23T10:45:50.748Z,17.35
2023-05-23T10:48:25.544Z,17.25
2023-05-23T10:51:01.321Z,17.08
2023-05-23T10:53:23.380Z,16.99
2023-05-23T10:55:49.168Z,16.94
2023-05-23T10:58:19.808Z,17.09
2023-05-23T11:00:52.401Z,17.13
2023-05-23T11:03:14.014Z,17.14
2023-05-23T11:05:38.705Z,17.24
2023-05-23T11:08:17.798Z,17.20
2023-05-23T11:11:01.758Z,17.24
2023-05-23T11:13:23.708Z,17.29
2023-05-23T11:15:45.884Z,17.35
2023-05-23T11:18:07.450Z,17.22
2023-05-23T11:20:30.801Z,17.11
2023-05-23T11:23:00.986Z,17.10
2023-05-23T11:25:40.954Z,17.16
2023-05-23T11:28:04.604Z,16.94
2023-05-23T11:30:28.851Z,16.75
2023-05-23T11:32:55.834Z,16.75
2023-05-23T11:35:17.876Z,16.62
2023-05-23T11:37:40.292Z,16.43
2023-05-23T11:40:27.012Z,16.32
2023-05-23T11:42:48.557Z,16.18
2023-05-23T11:45:10.249Z,15.89
2023-05-23T11:47:31.765Z,15.73
2023-05-23T11:49:53.626Z,15.71
2023-05-23T11:52:15.391Z,15.69
2023-05-23T11:54:36.954Z,15.50
2023-05-23T11:56:58.718Z,15.67
2023-05-23T11:59:27.304Z,15.73
2023-05-23T12:01:48.865Z,15.95
2023-05-23T12:04:13.949Z,15.91
2023-05-23T12:06:36.340Z,15.78
2023-05-23T12:08:59.446Z,15.74
2023-05-23T12:11:22.556Z,15.61
2023-05-23T12:13:44.835Z,15.65
2023-05-23T12:16:06.509Z,15.51
2023-05-23T12:18:30.429Z,15.56
2023-05-23T12:20:52.341Z,15.56
2023-05-23T12:23:22.325Z,15.43
2023-05-23T12:25:43.859Z,15.39
2023-05-23T12:28:06.050Z,15.46
2023-05-23T12:30:27.592Z,15.52
2023-05-23T12:32:49.168Z,15.47
2023-05-23T12:35:13.381Z,15.56
2023-05-23T12:37:35.256Z,15.35
2023-05-23T12:39:56.918Z,15.53
2023-05-23T12:42:18.474Z,15.81
2023-05-23T12:44:41.880Z,15.80
2023-05-23T12:47:03.948Z,15.84
2023-05-23T12:49:25.898Z,15.90
2023-05-23T12:51:47.493Z,15.72
2023-05-23T12:54:09.359Z,15.73
2023-05-23T12:56:31.179Z,15.67
2023-05-23T12:58:53.987Z,15.66
2023-05-23T13:01:15.640Z,15.60
2023-05-23T13:03:37.236Z,15.62
2023-05-23T13:05:59.778Z,15.56
2023-05-23T13:08:21.299Z,15.59
2023-05-23T13:10:42.990Z,15.69
2023-05-23T13:13:04.936Z,15.85
2023-05-23T13:15:26.452Z,15.96
2023-05-23T13:17:50.198Z,16.03
2023-05-23T13:20:14.426Z,15.95
2023-05-23T13:22:35.966Z,15.99
2023-05-23T13:24:57.418Z,15.98
2023-05-23T13:27:18.913Z,15.91
2023-05-23T13:29:40.376Z,15.61
2023-05-23T13:32:01.873Z,15.58
2023-05-23T13:34:23.346Z,15.58
2023-05-23T13:36:44.866Z,15.43
2023-05-23T13:39:07.080Z,15.47
2023-05-23T13:41:28.606Z,15.41
2023-05-23T13:43:50.067Z,15.39
2023-05-23T13:46:12.648Z,15.39
2023-05-23T13:48:34.186Z,15.45
2023-05-23T13:50:56.392Z,15.43
2023-05-23T13:53:17.875Z,15.40
2023-05-23T13:55:39.341Z,15.35
2023-05-23T13:58:00.792Z,15.25
2023-05-23T14:00:22.696Z,15.14
2023-05-23T14:02:44.233Z,15.22
2023-05-23T14:05:07.385Z,15.06
2023-05-23T14:07:29.072Z,14.95
2023-05-23T14:09:50.831Z,14.84
2023-05-23T14:12:12.366Z,14.80
2023-05-23T14:14:33.843Z,14.75
2023-05-23T14:16:55.472Z,14.73
2023-05-23T14:19:17.105Z,14.74
2023-05-23T14:21:38.839Z,14.81
2023-05-23T14:24:00.407Z,14.73
2023-05-23T14:26:22.444Z,14.72
2023-05-23T14:28:43.914Z,14.64
2023-05-23T14:31:05.647Z,14.55
2023-05-23T14:33:27.268Z,14.49
2023-05-23T14:35:49.354Z,14.58
2023-05-23T14:38:10.973Z,14.60
2023-05-23T14:40:32.427Z,14.73
2023-05-23T14:42:53.924Z,14.72
2023-05-23T14:45:17.861Z,14.77
2023-05-23T14:47:40.351Z,14.83
2023-05-23T14:50:01.992Z,15.01
2023-05-23T14:52:23.815Z,15.04
2023-05-23T14:54:45.278Z,15.16
2023-05-23T14:57:08.281Z,15.16
2023-05-23T14:59:29.760Z,15.12
2023-05-23T15:01:51.787Z,14.98
2023-05-23T15:04:13.830Z,14.85
2023-05-23T15:06:35.511Z,14.72
2023-05-23T15:08:57.269Z,14.53
2023-05-23T15:11:18.766Z,14.46
2023-05-23T15:13:40.324Z,14.43
2023-05-23T15:16:01.939Z,14.35
2023-05-23T15:18:39.014Z,14.24
2023-05-23T15:21:02.588Z,13.94
2023-05-23T15:23:24.061Z,13.90
2023-05-23T15:25:49.930Z,13.76
2023-05-23T15:28:13.959Z,13.82
2023-05-23T15:30:36.402Z,13.76
2023-05-23T15:32:59.865Z,13.69
2023-05-23T15:35:22.953Z,13.74
2023-05-23T15:37:45.076Z,13.81
2023-05-23T15:40:07.113Z,14.05
2023-05-23T15:42:28.576Z,14.16
2023-05-23T15:44:50.072Z,14.28
2023-05-23T15:47:11.698Z,14.40
2023-05-23T15:49:33.204Z,14.52
2023-05-23T15:51:55.412Z,14.49
2023-05-23T15:54:17.159Z,14.69
2023-05-23T15:56:38.770Z,14.64
2023-05-23T15:59:00.279Z,14.53
2023-05-23T16:01:21.957Z,14.52
2023-05-23T16:03:43.548Z,14.43
2023-05-23T16:06:05.748Z,14.45
2023-05-23T16:08:27.210Z,14.41
2023-05-23T16:10:48.733Z,14.50
2023-05-23T16:13:10.296Z,14.75
2023-05-23T16:15:31.765Z,14.97
2023-05-23T16:17:53.312Z,14.95
2023-05-23T16:20:14.948Z,14.80
2023-05-23T16:22:36.464Z,14.68
2023-05-23T16:24:57.917Z,14.58
2023-05-23T16:27:19.447Z,14.73
2023-05-23T16:29:40.996Z,14.79
2023-05-23T16:32:02.574Z,15.08
2023-05-23T16:34:24.079Z,15.44
2023-05-23T16:36:45.557Z,16.39
2023-05-23T16:39:07.170Z,16.51
2023-05-23T16:41:28.708Z,17.07
2023-05-23T16:43:50.260Z,17.52
2023-05-23T16:46:11.861Z,17.49
2023-05-23T16:48:33.364Z,17.31
2023-05-23T16:50:55.353Z,17.81
2023-05-23T16:53:16.890Z,18.44
2023-05-23T16:55:38.436Z,18.88
2023-05-23T16:57:59.955Z,18.49
2023-05-23T17:00:21.657Z,18.33
2023-05-23T17:02:43.245Z,18.36
2023-05-23T17:05:05.050Z,17.84
2023-05-23T17:07:26.499Z,17.31
2023-05-23T17:09:48.092Z,16.91
2023-05-23T17:12:09.575Z,16.66
2023-05-23T17:14:31.051Z,16.29
2023-05-23T17:16:53.584Z,16.28
2023-05-23T17:19:15.097Z,16.07
2023-05-23T17:21:37.606Z,15.94
2023-05-23T17:23:59.310Z,15.91
2023-05-23T17:26:20.825Z,15.84
2023-05-23T17:28:42.654Z,15.88
2023-05-23T17:31:04.234Z,15.90
2023-05-23T17:33:25.780Z,16.14
2023-05-23T17:35:47.301Z,16.30
2023-05-23T17:38:08.780Z,16.18
2023-05-23T17:40:30.480Z,16.41
2023-05-23T17:42:52.113Z,16.69
2023-05-23T17:45:13.680Z,16.82
2023-05-23T17:47:35.698Z,17.02
2023-05-23T17:49:58.119Z,17.17
2023-05-23T17:52:19.603Z,17.04
2023-05-23T17:54:42.232Z,17.03
2023-05-23T17:57:04.632Z,16.82
2023-05-23T17:59:28.004Z,16.64
2023-05-23T18:01:49.572Z,16.63
2023-05-23T18:04:11.125Z,16.56
2023-05-23T18:06:32.750Z,16.47
2023-05-23T18:09:39.614Z,16.23
2023-05-23T18:12:01.056Z,16.15
2023-05-23T18:14:22.521Z,15.96
2023-05-23T18:16:44.008Z,15.83
2023-05-23T18:19:06.005Z,15.70
2023-05-23T18:21:27.590Z,15.86
2023-05-23T18:23:49.120Z,15.95
2023-05-23T18:26:10.783Z,16.01
2023-05-23T18:28:32.258Z,16.18
2023-05-23T18:30:54.776Z,16.26
2023-05-23T18:33:16.465Z,16.33
2023-05-23T18:35:37.973Z,16.28
2023-05-23T18:37:59.427Z,16.01
2023-05-23T18:40:23.733Z,15.83
2023-05-23T18:42:45.317Z,15.85
2023-05-23T18:45:07.806Z,15.78
2023-05-23T18:47:29.294Z,15.72
2023-05-23T18:49:51.018Z,15.43
2023-05-23T18:52:12.684Z,15.53
2023-05-23T18:54:34.202Z,15.33
2023-05-23T18:56:55.867Z,15.30
2023-05-23T18:59:17.595Z,15.30
2023-05-23T19:01:39.524Z,15.22
2023-05-23T19:04:01.702Z,15.23
2023-05-23T19:06:23.293Z,14.93
2023-05-23T19:08:44.796Z,14.94
2023-05-23T19:11:07.131Z,14.86
2023-05-23T19:13:28.670Z,14.92
2023-05-23T19:15:52.783Z,14.96
2023-05-23T19:18:14.454Z,14.91
2023-05-23T19:20:36.295Z,14.82
2023-05-23T19:22:57.733Z,14.76
2023-05-23T19:25:20.220Z,14.71
2023-05-23T19:27:41.767Z,14.64
2023-05-23T19:30:03.335Z,14.64
2023-05-23T19:32:24.891Z,14.58
2023-05-23T19:34:46.506Z,14.50
2023-05-23T19:37:08.057Z,14.49
2023-05-23T19:39:29.530Z,14.47
2023-05-23T19:41:51.239Z,14.42
2023-05-23T19:44:13.259Z,14.49
2023-05-23T19:46:34.839Z,14.48
2023-05-23T19:48:57.866Z,14.38
2023-05-23T19:51:19.361Z,14.44
2023-05-23T19:53:41.610Z,14.21
2023-05-23T19:56:03.617Z,14.28
2023-05-23T19:58:25.071Z,14.36
2023-05-23T20:00:46.544Z,14.22
2023-05-23T20:03:08.365Z,14.27
2023-05-23T20:05:30.262Z,14.18
2023-05-23T20:07:52.597Z,14.07
2023-05-23T20:10:15.695Z,14.12
2023-05-23T20:12:37.332Z,13.90
2023-05-23T20:14:58.789Z,13.87
2023-05-23T20:17:20.338Z,13.68
2023-05-23T20:19:41.909Z,13.65
2023-05-23T20:22:03.403Z,13.71
2023-05-23T20:24:24.962Z,13.78
2023-05-23T20:26:46.718Z,13.55
2023-05-23T20:29:08.261Z,13.69
2023-05-23T20:31:29.858Z,13.79
2023-05-23T20:33:52.460Z,13.68
2023-05-23T20:36:13.978Z,13.61
2023-05-23T20:38:35.563Z,13.56
2023-05-23T20:40:57.077Z,13.54
2023-05-23T20:43:19.624Z,13.76
2023-05-23T20:45:41.429Z,13.75
2023-05-23T20:48:03.216Z,13.58
2023-05-23T20:50:25.081Z,13.42
2023-05-23T20:52:46.582Z,13.31
2023-05-23T20:55:08.927Z,13.29
2023-05-23T20:57:30.372Z,13.34
2023-05-23T20:59:52.594Z,13.32
2023-05-23T21:02:14.204Z,13.39
2023-05-23T21:04:35.679Z,13.38
2023-05-23T21:06:57.142Z,13.32
2023-05-23T21:09:18.613Z,13.34
2023-05-23T21:11:40.071Z,13.49
2023-05-23T21:14:01.580Z,13.53
2023-05-23T21:16:23.051Z,13.38
2023-05-23T21:18:44.544Z,13.43
2023-05-23T21:21:06.147Z,13.39
2023-05-23T21:23:27.630Z,13.35
2023-05-23T21:25:49.365Z,13.31
2023-05-23T21:28:10.819Z,13.33
2023-05-23T21:30:32.614Z,13.33
2023-05-23T21:32:54.158Z,13.30
2023-05-23T21:35:15.846Z,13.31
2023-05-23T21:37:37.312Z,13.23
2023-05-23T21:39:58.772Z,13.21
2023-05-23T21:42:21.054Z,13.24
2023-05-23T21:44:42.681Z,13.13
2023-05-23T21:47:04.273Z,13.15
2023-05-23T21:49:25.906Z,13.17
2023-05-23T21:51:47.343Z,13.14
2023-05-23T21:54:08.850Z,13.14
2023-05-23T21:56:30.357Z,13.15
2023-05-23T21:58:51.856Z,13.11
2023-05-23T22:01:13.371Z,13.13
2023-05-23T22:03:35.030Z,13.12
2023-05-23T22:05:56.727Z,13.07
2023-05-23T22:08:18.392Z,13.08
2023-05-23T22:10:40.536Z,13.01
2023-05-23T22:13:05.436Z,12.99
2023-05-23T22:15:26.887Z,12.98
2023-05-23T22:17:48.395Z,12.98
2023-05-23T22:20:10.391Z,12.94
2023-05-23T22:22:32.001Z,12.94
2023-05-23T22:24:53.543Z,12.86
2023-05-23T22:27:15.006Z,12.78
2023-05-23T22:29:36.466Z,12.68
2023-05-23T22:31:58.205Z,12.59
2023-05-23T22:34:19.716Z,12.53
2023-05-23T22:36:41.245Z,12.54
2023-05-23T22:39:05.147Z,12.37
2023-05-23T22:41:27.847Z,12.42
2023-05-23T22:43:49.323Z,12.42
2023-05-23T22:46:11.209Z,12.38
2023-05-23T22:48:35.807Z,12.36
2023-05-23T22:50:57.265Z,12.22
2023-05-23T22:53:18.775Z,12.28
2023-05-23T22:55:40.268Z,12.26
2023-05-23T22:58:01.995Z,12.31
2023-05-23T23:00:23.980Z,12.19
2023-05-23T23:02:45.508Z,11.95
2023-05-23T23:05:07.540Z,11.80
2023-05-23T23:07:29.072Z,11.90
2023-05-23T23:09:50.581Z,11.88
2023-05-23T23:12:12.076Z,11.92
2023-05-23T23:14:33.545Z,11.89
2023-05-23T23:16:55.906Z,11.85
2023-05-23T23:19:17.837Z,11.82
2023-05-23T23:21:39.259Z,11.86
2023-05-23T23:24:01.298Z,11.77
2023-05-23T23:26:23.153Z,11.69
2023-05-23T23:28:44.618Z,11.73
2023-05-23T23:31:06.089Z,11.78
2023-05-23T23:33:27.564Z,11.80
2023-05-23T23:35:51.648Z,11.82
2023-05-23T23:38:13.255Z,11.79
2023-05-23T23:40:34.727Z,11.72
2023-05-23T23:42:56.225Z,11.78
2023-05-23T23:45:17.962Z,11.77
2023-05-23T23:47:39.448Z,11.77
2023-05-23T23:50:00.914Z,11.76
2023-05-23T23:52:22.386Z,11.78
2023-05-23T23:54:43.895Z,11.68
2023-05-23T23:57:06.748Z,11.65
2023-05-23T23:59:28.185Z,11.62
